Vienna, Georgia
Current Conditions -  °F | °C
As of 9:15 PM on Saturday 22 Nov 2014 (Local Time) from KCKF Reporting Station
Overcast Overcast  
Wind Chill: 62°   Ceiling: 3200
Heat Index: 62°   Visibility: 10mi
Dew Point: 55°   Wind: 7mph
Humidity: 78%   Direction: 110°ESE
Pressure: 30.23"   Gusts: NA
Location:  32.09°N, 83.8°W
Report Text: KCKF 230215Z AUTO 11006KT 10SM SCT028 BKN032 OVC070 16/13 A3023 RMK AO2 T01640125
Loading
Personal Weather Stations






























Interactive Weather Map New forecast layout! Learn more

10-Day Weather Forecast

Advertisements
Track Severe Weather on mobile